sensor_id;sensor_type;location;lat;lon;timestamp;pressure;altitude;pressure_sealevel;temperature;humidity
18918;BME280;9591;52.742;13.650;2023-10-13T00:00:29;100824.53;;;33.18;26.98
18918;BME280;9591;52.742;13.650;2023-10-13T00:03:21;100828.31;;;33.17;26.92
18918;BME280;9591;52.742;13.650;2023-10-13T00:06:08;100833.72;;;33.11;26.93
18918;BME280;9591;52.742;13.650;2023-10-13T00:08:57;100826.09;;;33.42;26.66
18918;BME280;9591;52.742;13.650;2023-10-13T00:11:45;100824.72;;;33.53;26.51
18918;BME280;9591;52.742;13.650;2023-10-13T00:14:33;100833.06;;;33.66;26.44
18918;BME280;9591;52.742;13.650;2023-10-13T00:17:20;100830.28;;;33.60;26.34
18918;BME280;9591;52.742;13.650;2023-10-13T00:20:11;100825.84;;;33.22;27.02
18918;BME280;9591;52.742;13.650;2023-10-13T00:23:19;100826.94;;;33.07;27.42
18918;BME280;9591;52.742;13.650;2023-10-13T00:26:08;100819.13;;;33.25;27.02
18918;BME280;9591;52.742;13.650;2023-10-13T00:28:56;100794.31;;;32.97;27.16
18918;BME280;9591;52.742;13.650;2023-10-13T00:31:54;100803.94;;;33.08;27.22
18918;BME280;9591;52.742;13.650;2023-10-13T00:34:42;100804.72;;;33.02;27.53
18918;BME280;9591;52.742;13.650;2023-10-13T00:37:29;100806.97;;;32.77;27.68
18918;BME280;9591;52.742;13.650;2023-10-13T00:43:56;100806.50;;;33.09;27.46
18918;BME280;9591;52.742;13.650;2023-10-13T00:46:54;100805.84;;;33.07;27.52
18918;BME280;9591;52.742;13.650;2023-10-13T00:49:44;100794.16;;;33.20;27.16
18918;BME280;9591;52.742;13.650;2023-10-13T00:52:35;100801.59;;;33.41;27.20
18918;BME280;9591;52.742;13.650;2023-10-13T00:55:22;100798.56;;;33.00;27.73
18918;BME280;9591;52.742;13.650;2023-10-13T00:58:13;100783.78;;;33.58;27.18
18918;BME280;9591;52.742;13.650;2023-10-13T01:01:02;100774.38;;;33.67;27.37
18918;BME280;9591;52.742;13.650;2023-10-13T01:03:56;100781.03;;;33.15;28.14
18918;BME280;9591;52.742;13.650;2023-10-13T01:06:44;100784.72;;;33.44;27.46
18918;BME280;9591;52.742;13.650;2023-10-13T01:09:40;100782.75;;;33.38;27.58
18918;BME280;9591;52.742;13.650;2023-10-13T01:12:27;100784.25;;;33.62;27.48
18918;BME280;9591;52.742;13.650;2023-10-13T01:15:17;100773.19;;;33.76;27.43
18918;BME280;9591;52.742;13.650;2023-10-13T01:18:07;100770.47;;;33.83;27.21
18918;BME280;9591;52.742;13.650;2023-10-13T01:20:58;100765.47;;;33.93;27.08
18918;BME280;9591;52.742;13.650;2023-10-13T01:23:47;100771.22;;;33.98;27.25
18918;BME280;9591;52.742;13.650;2023-10-13T01:26:36;100767.88;;;34.03;26.84
18918;BME280;9591;52.742;13.650;2023-10-13T01:29:26;100765.94;;;33.69;27.25
18918;BME280;9591;52.742;13.650;2023-10-13T01:32:14;100763.66;;;34.07;27.04
18918;BME280;9591;52.742;13.650;2023-10-13T01:35:01;100758.44;;;33.56;27.72
18918;BME280;9591;52.742;13.650;2023-10-13T01:37:51;100772.16;;;34.12;26.99
18918;BME280;9591;52.742;13.650;2023-10-13T01:40:40;100765.44;;;34.21;26.82
18918;BME280;9591;52.742;13.650;2023-10-13T01:43:28;100766.31;;;33.94;27.30
18918;BME280;9591;52.742;13.650;2023-10-13T01:46:15;100767.13;;;33.87;27.18
18918;BME280;9591;52.742;13.650;2023-10-13T01:49:01;100771.47;;;34.03;27.02
18918;BME280;9591;52.742;13.650;2023-10-13T01:51:49;100766.84;;;34.38;26.46
18918;BME280;9591;52.742;13.650;2023-10-13T01:54:35;100771.50;;;34.38;26.49
18918;BME280;9591;52.742;13.650;2023-10-13T01:57:27;100766.75;;;34.60;26.31
18918;BME280;9591;52.742;13.650;2023-10-13T02:00:14;100759.34;;;34.60;26.50
18918;BME280;9591;52.742;13.650;2023-10-13T02:03:05;100768.38;;;34.47;26.39
18918;BME280;9591;52.742;13.650;2023-10-13T02:06:00;100766.75;;;34.60;26.41
18918;BME280;9591;52.742;13.650;2023-10-13T02:08:50;100772.47;;;34.65;26.22
18918;BME280;9591;52.742;13.650;2023-10-13T02:11:43;100760.19;;;34.61;26.13
18918;BME280;9591;52.742;13.650;2023-10-13T02:14:33;100756.09;;;34.43;26.65
18918;BME280;9591;52.742;13.650;2023-10-13T02:17:21;100763.63;;;34.00;27.00
18918;BME280;9591;52.742;13.650;2023-10-13T02:20:09;100755.63;;;33.49;27.64
18918;BME280;9591;52.742;13.650;2023-10-13T02:23:00;100756.09;;;33.32;27.74
18918;BME280;9591;52.742;13.650;2023-10-13T02:25:46;100757.19;;;33.59;27.53
18918;BME280;9591;52.742;13.650;2023-10-13T02:28:33;100752.09;;;33.83;27.04
18918;BME280;9591;52.742;13.650;2023-10-13T02:31:22;100745.16;;;33.17;28.00
18918;BME280;9591;52.742;13.650;2023-10-13T02:34:09;100748.50;;;33.83;26.99
18918;BME280;9591;52.742;13.650;2023-10-13T02:36:59;100739.56;;;34.02;26.98
18918;BME280;9591;52.742;13.650;2023-10-13T02:39:45;100746.53;;;34.05;26.90
18918;BME280;9591;52.742;13.650;2023-10-13T02:42:32;100742.06;;;33.97;26.64
18918;BME280;9591;52.742;13.650;2023-10-13T02:45:18;100740.88;;;34.13;26.53
18918;BME280;9591;52.742;13.650;2023-10-13T02:48:12;100736.28;;;33.85;27.21
18918;BME280;9591;52.742;13.650;2023-10-13T02:51:03;100719.75;;;34.13;26.59
18918;BME280;9591;52.742;13.650;2023-10-13T02:54:01;100703.53;;;33.84;27.21
18918;BME280;9591;52.742;13.650;2023-10-13T02:56:54;100687.44;;;33.81;27.11
18918;BME280;9591;52.742;13.650;2023-10-13T02:59:44;100694.84;;;34.22;26.75
18918;BME280;9591;52.742;13.650;2023-10-13T03:02:32;100697.34;;;34.10;26.72
18918;BME280;9591;52.742;13.650;2023-10-13T03:05:22;100707.06;;;34.12;26.65
18918;BME280;9591;52.742;13.650;2023-10-13T03:08:08;100706.47;;;33.82;27.21
18918;BME280;9591;52.742;13.650;2023-10-13T03:10:56;100696.88;;;34.06;26.80
18918;BME280;9591;52.742;13.650;2023-10-13T03:13:42;100698.19;;;33.76;27.37
18918;BME280;9591;52.742;13.650;2023-10-13T03:16:31;100690.78;;;33.76;27.32
18918;BME280;9591;52.742;13.650;2023-10-13T03:19:18;100692.97;;;33.87;27.20
18918;BME280;9591;52.742;13.650;2023-10-13T03:22:10;100670.81;;;33.89;27.09
18918;BME280;9591;52.742;13.650;2023-10-13T03:24:59;100677.72;;;33.50;27.62
18918;BME280;9591;52.742;13.650;2023-10-13T03:27:51;100673.50;;;33.82;27.43
18918;BME280;9591;52.742;13.650;2023-10-13T03:30:50;100668.28;;;33.94;27.27
18918;BME280;9591;52.742;13.650;2023-10-13T03:33:38;100665.34;;;33.96;27.07
18918;BME280;9591;52.742;13.650;2023-10-13T03:36:30;100671.50;;;33.98;27.04
18918;BME280;9591;52.742;13.650;2023-10-13T03:39:32;100659.81;;;34.30;27.02
18918;BME280;9591;52.742;13.650;2023-10-13T03:42:19;100652.50;;;33.68;27.99
18918;BME280;9591;52.742;13.650;2023-10-13T03:45:08;100651.00;;;34.00;27.30
18918;BME280;9591;52.742;13.650;2023-10-13T03:47:56;100646.25;;;34.29;27.00
18918;BME280;9591;52.742;13.650;2023-10-13T03:50:43;100647.31;;;34.28;26.90
18918;BME280;9591;52.742;13.650;2023-10-13T03:53:38;100645.38;;;34.22;27.18
18918;BME280;9591;52.742;13.650;2023-10-13T03:56:40;100640.75;;;33.46;28.01
18918;BME280;9591;52.742;13.650;2023-10-13T03:59:27;100642.66;;;33.80;27.63
18918;BME280;9591;52.742;13.650;2023-10-13T04:02:21;100630.69;;;34.36;27.08
18918;BME280;9591;52.742;13.650;2023-10-13T04:05:12;100630.75;;;34.08;27.35
18918;BME280;9591;52.742;13.650;2023-10-13T04:08:15;100626.81;;;34.30;27.20
18918;BME280;9591;52.742;13.650;2023-10-13T04:11:20;100622.28;;;34.03;27.76
18918;BME280;9591;52.742;13.650;2023-10-13T04:14:46;100618.97;;;33.73;27.81
18918;BME280;9591;52.742;13.650;2023-10-13T04:17:56;100614.69;;;34.05;27.89
18918;BME280;9591;52.742;13.650;2023-10-13T04:20:43;100607.59;;;34.30;27.24
18918;BME280;9591;52.742;13.650;2023-10-13T04:23:32;100601.97;;;34.65;26.95
18918;BME280;9591;52.742;13.650;2023-10-13T04:26:38;100606.59;;;34.38;27.24
18918;BME280;9591;52.742;13.650;2023-10-13T04:29:44;100607.88;;;34.42;27.26
18918;BME280;9591;52.742;13.650;2023-10-13T04:32:42;100608.91;;;34.41;27.24
18918;BME280;9591;52.742;13.650;2023-10-13T04:35:51;100594.72;;;34.31;27.31
18918;BME280;9591;52.742;13.650;2023-10-13T04:38:44;100586.84;;;34.21;27.85
18918;BME280;9591;52.742;13.650;2023-10-13T04:41:43;100593.81;;;34.17;27.70
18918;BME280;9591;52.742;13.650;2023-10-13T04:44:42;100598.69;;;34.28;27.48
18918;BME280;9591;52.742;13.650;2023-10-13T04:47:38;100593.28;;;34.41;27.20
18918;BME280;9591;52.742;13.650;2023-10-13T04:50:34;100580.78;;;34.32;27.50
18918;BME280;9591;52.742;13.650;2023-10-13T04:53:30;100586.66;;;34.29;27.62
18918;BME280;9591;52.742;13.650;2023-10-13T04:56:20;100592.69;;;34.05;27.97
18918;BME280;9591;52.742;13.650;2023-10-13T04:59:22;100581.88;;;34.51;27.57
18918;BME280;9591;52.742;13.650;2023-10-13T05:02:24;100588.44;;;34.76;27.09
18918;BME280;9591;52.742;13.650;2023-10-13T05:05:30;100577.84;;;34.47;27.27
18918;BME280;9591;52.742;13.650;2023-10-13T05:08:34;100568.13;;;34.44;27.63
18918;BME280;9591;52.742;13.650;2023-10-13T05:11:38;100573.63;;;34.77;27.20
18918;BME280;9591;52.742;13.650;2023-10-13T05:14:43;100571.97;;;34.83;27.14
18918;BME280;9591;52.742;13.650;2023-10-13T05:17:56;100562.19;;;34.47;27.60
18918;BME280;9591;52.742;13.650;2023-10-13T05:21:00;100548.66;;;34.39;27.71
18918;BME280;9591;52.742;13.650;2023-10-13T05:24:11;100555.50;;;33.54;29.10
18918;BME280;9591;52.742;13.650;2023-10-13T05:27:16;100557.28;;;34.30;28.20
18918;BME280;9591;52.742;13.650;2023-10-13T05:30:17;100550.16;;;34.48;27.93
18918;BME280;9591;52.742;13.650;2023-10-13T05:33:22;100556.06;;;34.72;27.69
18918;BME280;9591;52.742;13.650;2023-10-13T05:36:26;100555.25;;;34.98;27.36
18918;BME280;9591;52.742;13.650;2023-10-13T05:39:32;100557.97;;;34.51;27.81
18918;BME280;9591;52.742;13.650;2023-10-13T05:42:37;100556.91;;;34.39;27.99
18918;BME280;9591;52.742;13.650;2023-10-13T05:45:41;100560.53;;;34.93;27.21
18918;BME280;9591;52.742;13.650;2023-10-13T05:48:42;100558.41;;;35.01;27.48
18918;BME280;9591;52.742;13.650;2023-10-13T05:51:49;100564.34;;;35.05;27.30
18918;BME280;9591;52.742;13.650;2023-10-13T05:54:45;100565.19;;;35.05;27.19
18918;BME280;9591;52.742;13.650;2023-10-13T05:57:50;100559.69;;;35.12;27.20
18918;BME280;9591;52.742;13.650;2023-10-13T06:00:55;100546.75;;;35.26;27.11
18918;BME280;9591;52.742;13.650;2023-10-13T06:04:00;100553.13;;;35.33;27.13
18918;BME280;9591;52.742;13.650;2023-10-13T06:07:10;100544.84;;;35.20;27.36
18918;BME280;9591;52.742;13.650;2023-10-13T06:10:19;100535.72;;;35.45;27.10
18918;BME280;9591;52.742;13.650;2023-10-13T06:13:24;100519.91;;;34.95;27.97
18918;BME280;9591;52.742;13.650;2023-10-13T06:16:29;100527.94;;;34.70;28.05
18918;BME280;9591;52.742;13.650;2023-10-13T06:19:33;100532.16;;;35.05;28.02
18918;BME280;9591;52.742;13.650;2023-10-13T06:22:37;100526.25;;;34.95;28.05
18918;BME280;9591;52.742;13.650;2023-10-13T06:25:43;100531.72;;;35.35;27.43
18918;BME280;9591;52.742;13.650;2023-10-13T06:28:54;100536.16;;;35.42;27.32
18918;BME280;9591;52.742;13.650;2023-10-13T06:31:40;100527.53;;;34.99;27.81
18918;BME280;9591;52.742;13.650;2023-10-13T06:34:31;100530.66;;;35.23;27.86
18918;BME280;9591;52.742;13.650;2023-10-13T06:37:28;100529.50;;;33.98;29.23
18918;BME280;9591;52.742;13.650;2023-10-13T06:40:18;100524.75;;;34.73;28.79
18918;BME280;9591;52.742;13.650;2023-10-13T06:43:21;100533.03;;;34.53;29.17
18918;BME280;9591;52.742;13.650;2023-10-13T06:46:12;100527.47;;;35.39;28.15
18918;BME280;9591;52.742;13.650;2023-10-13T06:49:09;100522.22;;;35.31;28.17
18918;BME280;9591;52.742;13.650;2023-10-13T06:51:57;100519.41;;;35.51;27.83
18918;BME280;9591;52.742;13.650;2023-10-13T06:54:46;100511.34;;;35.49;28.05
18918;BME280;9591;52.742;13.650;2023-10-13T06:57:34;100512.44;;;35.41;28.20
18918;BME280;9591;52.742;13.650;2023-10-13T07:00:29;100512.94;;;35.70;28.21
18918;BME280;9591;52.742;13.650;2023-10-13T07:03:20;100512.25;;;35.88;27.81
18918;BME280;9591;52.742;13.650;2023-10-13T07:06:07;100511.19;;;36.27;27.41
18918;BME280;9591;52.742;13.650;2023-10-13T07:08:56;100512.69;;;36.23;27.67
18918;BME280;9591;52.742;13.650;2023-10-13T07:11:43;100511.63;;;36.80;27.29
18918;BME280;9591;52.742;13.650;2023-10-13T07:14:30;100514.59;;;36.79;26.97
18918;BME280;9591;52.742;13.650;2023-10-13T07:17:20;100506.28;;;36.85;26.83
18918;BME280;9591;52.742;13.650;2023-10-13T07:20:10;100499.47;;;36.88;27.13
18918;BME280;9591;52.742;13.650;2023-10-13T07:23:09;100496.47;;;36.89;27.06
18918;BME280;9591;52.742;13.650;2023-10-13T07:25:57;100498.69;;;36.81;27.28
18918;BME280;9591;52.742;13.650;2023-10-13T07:28:48;100494.97;;;35.61;28.63
18918;BME280;9591;52.742;13.650;2023-10-13T07:31:37;100491.69;;;35.39;28.75
18918;BME280;9591;52.742;13.650;2023-10-13T07:34:28;100494.84;;;36.32;28.04
18918;BME280;9591;52.742;13.650;2023-10-13T07:37:18;100493.00;;;36.44;27.96
18918;BME280;9591;52.742;13.650;2023-10-13T07:40:06;100484.34;;;35.00;29.77
18918;BME280;9591;52.742;13.650;2023-10-13T07:43:07;100485.78;;;35.80;28.57
18918;BME280;9591;52.742;13.650;2023-10-13T07:45:57;100486.50;;;36.38;27.84
18918;BME280;9591;52.742;13.650;2023-10-13T07:48:45;100493.28;;;34.49;30.37
18918;BME280;9591;52.742;13.650;2023-10-13T07:51:33;100487.31;;;35.69;29.00
18918;BME280;9591;52.742;13.650;2023-10-13T07:54:29;100484.06;;;36.49;27.78
18918;BME280;9591;52.742;13.650;2023-10-13T07:57:16;100479.88;;;35.70;29.04
18918;BME280;9591;52.742;13.650;2023-10-13T08:00:05;100470.41;;;36.60;27.72
18918;BME280;9591;52.742;13.650;2023-10-13T08:02:57;100464.25;;;36.40;28.00
18918;BME280;9591;52.742;13.650;2023-10-13T08:05:54;100476.03;;;35.77;29.05
18918;BME280;9591;52.742;13.650;2023-10-13T08:08:51;100470.66;;;35.96;28.99
18918;BME280;9591;52.742;13.650;2023-10-13T08:11:41;100461.53;;;37.01;27.81
18918;BME280;9591;52.742;13.650;2023-10-13T08:14:28;100467.28;;;37.18;27.46
18918;BME280;9591;52.742;13.650;2023-10-13T08:17:24;100469.41;;;37.23;27.58
18918;BME280;9591;52.742;13.650;2023-10-13T08:20:16;100462.66;;;36.19;28.73
18918;BME280;9591;52.742;13.650;2023-10-13T08:23:04;100467.66;;;37.58;26.83
18918;BME280;9591;52.742;13.650;2023-10-13T08:26:09;100469.44;;;37.71;26.50
18918;BME280;9591;52.742;13.650;2023-10-13T08:29:16;100459.88;;;38.15;26.21
18918;BME280;9591;52.742;13.650;2023-10-13T08:32:20;100465.22;;;36.45;28.62
18918;BME280;9591;52.742;13.650;2023-10-13T08:35:22;100458.97;;;36.57;28.46
18918;BME280;9591;52.742;13.650;2023-10-13T08:38:19;100456.03;;;37.38;27.56
18918;BME280;9591;52.742;13.650;2023-10-13T08:41:18;100452.66;;;37.36;27.66
18918;BME280;9591;52.742;13.650;2023-10-13T08:44:16;100443.91;;;37.21;27.67
18918;BME280;9591;52.742;13.650;2023-10-13T08:47:30;100433.63;;;36.91;27.95
18918;BME280;9591;52.742;13.650;2023-10-13T08:50:22;100437.78;;;37.19;27.72
18918;BME280;9591;52.742;13.650;2023-10-13T08:53:33;100428.63;;;37.55;26.81
18918;BME280;9591;52.742;13.650;2023-10-13T08:56:31;100430.53;;;36.06;28.72
18918;BME280;9591;52.742;13.650;2023-10-13T08:59:19;100433.34;;;37.18;27.61
18918;BME280;9591;52.742;13.650;2023-10-13T09:02:14;100426.09;;;37.71;26.92
18918;BME280;9591;52.742;13.650;2023-10-13T09:05:05;100420.66;;;36.24;28.85
18918;BME280;9591;52.742;13.650;2023-10-13T09:08:11;100422.00;;;37.26;27.17
18918;BME280;9591;52.742;13.650;2023-10-13T09:11:03;100411.09;;;37.79;26.64
18918;BME280;9591;52.742;13.650;2023-10-13T09:13:57;100412.78;;;37.32;27.61
18918;BME280;9591;52.742;13.650;2023-10-13T09:16:49;100404.03;;;36.80;28.10
18918;BME280;9591;52.742;13.650;2023-10-13T09:19:53;100392.75;;;37.36;27.36
18918;BME280;9591;52.742;13.650;2023-10-13T09:22:42;100398.91;;;37.20;27.81
18918;BME280;9591;52.742;13.650;2023-10-13T09:25:28;100390.88;;;35.83;29.31
18918;BME280;9591;52.742;13.650;2023-10-13T09:28:19;100393.94;;;36.49;28.51
18918;BME280;9591;52.742;13.650;2023-10-13T09:31:09;100380.75;;;38.02;27.06
18918;BME280;9591;52.742;13.650;2023-10-13T09:33:55;100383.97;;;37.88;27.08
18918;BME280;9591;52.742;13.650;2023-10-13T09:36:43;100380.84;;;38.61;26.43
18918;BME280;9591;52.742;13.650;2023-10-13T09:39:34;100376.13;;;37.73;26.98
18918;BME280;9591;52.742;13.650;2023-10-13T09:42:28;100369.25;;;38.17;26.74
18918;BME280;9591;52.742;13.650;2023-10-13T09:45:16;100363.13;;;38.15;26.96
18918;BME280;9591;52.742;13.650;2023-10-13T09:48:10;100365.59;;;37.93;27.15
18918;BME280;9591;52.742;13.650;2023-10-13T09:51:03;100352.56;;;37.70;27.15
18918;BME280;9591;52.742;13.650;2023-10-13T09:53:59;100352.84;;;36.41;29.06
18918;BME280;9591;52.742;13.650;2023-10-13T09:57:15;100338.69;;;37.59;27.84
18918;BME280;9591;52.742;13.650;2023-10-13T10:00:11;100310.03;;;38.13;26.56
18918;BME280;9591;52.742;13.650;2023-10-13T10:03:15;100318.75;;;38.45;26.35
18918;BME280;9591;52.742;13.650;2023-10-13T10:06:21;100316.38;;;37.00;28.64
18918;BME280;9591;52.742;13.650;2023-10-13T10:09:14;100319.72;;;37.02;28.34
18918;BME280;9591;52.742;13.650;2023-10-13T10:12:12;100296.19;;;38.13;27.05
18918;BME280;9591;52.742;13.650;2023-10-13T10:15:12;100310.47;;;38.45;26.30
18918;BME280;9591;52.742;13.650;2023-10-13T10:18:22;100278.09;;;38.57;25.78
18918;BME280;9591;52.742;13.650;2023-10-13T10:21:11;100305.06;;;37.92;26.96
18918;BME280;9591;52.742;13.650;2023-10-13T10:24:01;100293.97;;;36.54;28.74
18918;BME280;9591;52.742;13.650;2023-10-13T10:26:58;100290.41;;;38.15;26.53
18918;BME280;9591;52.742;13.650;2023-10-13T10:29:53;100284.28;;;38.01;26.82
18918;BME280;9591;52.742;13.650;2023-10-13T10:32:40;100287.63;;;36.53;28.40
18918;BME280;9591;52.742;13.650;2023-10-13T10:35:28;100277.28;;;37.87;27.38
18918;BME280;9591;52.742;13.650;2023-10-13T10:38:18;100277.53;;;38.20;27.09
18918;BME280;9591;52.742;13.650;2023-10-13T10:41:25;100280.75;;;37.70;28.06
18918;BME280;9591;52.742;13.650;2023-10-13T10:44:16;100294.34;;;37.12;28.67
18918;BME280;9591;52.742;13.650;2023-10-13T10:47:12;100294.59;;;37.52;28.32
18918;BME280;9591;52.742;13.650;2023-10-13T10:50:06;100287.53;;;36.96;29.06
18918;BME280;9591;52.742;13.650;2023-10-13T10:53:07;100290.25;;;36.85;29.01
18918;BME280;9591;52.742;13.650;2023-10-13T10:56:04;100284.38;;;38.06;27.80
18918;BME280;9591;52.742;13.650;2023-10-13T10:58:54;100278.19;;;35.50;31.32
18918;BME280;9591;52.742;13.650;2023-10-13T11:01:46;100260.22;;;37.36;29.12
18918;BME280;9591;52.742;13.650;2023-10-13T11:04:36;100254.63;;;37.13;29.45
18918;BME280;9591;52.742;13.650;2023-10-13T11:07:36;100248.47;;;36.63;30.16
18918;BME280;9591;52.742;13.650;2023-10-13T11:10:25;100232.81;;;36.02;31.29
18918;BME280;9591;52.742;13.650;2023-10-13T11:13:13;100227.50;;;36.80;30.12
18918;BME280;9591;52.742;13.650;2023-10-13T11:16:07;100227.78;;;35.99;31.47
18918;BME280;9591;52.742;13.650;2023-10-13T11:19:01;100231.16;;;36.92;30.13
18918;BME280;9591;52.742;13.650;2023-10-13T11:21:52;100225.94;;;37.56;29.65
18918;BME280;9591;52.742;13.650;2023-10-13T11:24:40;100229.28;;;37.04;30.02
18918;BME280;9591;52.742;13.650;2023-10-13T11:27:32;100224.97;;;36.42;31.06
18918;BME280;9591;52.742;13.650;2023-10-13T11:30:41;100221.75;;;36.08;31.60
18918;BME280;9591;52.742;13.650;2023-10-13T11:33:30;100217.22;;;36.14;31.40
18918;BME280;9591;52.742;13.650;2023-10-13T11:36:18;100223.38;;;37.01;30.53
18918;BME280;9591;52.742;13.650;2023-10-13T11:39:08;100209.41;;;37.67;29.39
18918;BME280;9591;52.742;13.650;2023-10-13T11:41:55;100200.03;;;37.80;29.14
18918;BME280;9591;52.742;13.650;2023-10-13T11:44:43;100170.25;;;37.70;29.54
18918;BME280;9591;52.742;13.650;2023-10-13T11:47:30;100178.63;;;37.64;29.38
18918;BME280;9591;52.742;13.650;2023-10-13T11:50:34;100169.38;;;37.47;29.70
18918;BME280;9591;52.742;13.650;2023-10-13T11:53:21;100164.38;;;37.02;30.59
18918;BME280;9591;52.742;13.650;2023-10-13T11:56:08;100169.13;;;37.48;30.16
18918;BME280;9591;52.742;13.650;2023-10-13T11:58:55;100164.56;;;36.89;30.49
18918;BME280;9591;52.742;13.650;2023-10-13T12:01:49;100162.84;;;37.18;30.42
18918;BME280;9591;52.742;13.650;2023-10-13T12:04:54;100156.19;;;37.84;29.12
18918;BME280;9591;52.742;13.650;2023-10-13T12:07:43;100152.59;;;38.47;28.49
18918;BME280;9591;52.742;13.650;2023-10-13T12:10:34;100156.78;;;37.51;30.00
18918;BME280;9591;52.742;13.650;2023-10-13T12:13:34;100148.16;;;37.94;29.61
18918;BME280;9591;52.742;13.650;2023-10-13T12:16:21;100144.13;;;38.93;27.77
18918;BME280;9591;52.742;13.650;2023-10-13T12:19:10;100139.81;;;38.17;29.33
18918;BME280;9591;52.742;13.650;2023-10-13T12:21:57;100129.72;;;38.63;28.34
18918;BME280;9591;52.742;13.650;2023-10-13T12:24:50;100133.47;;;37.58;29.83
18918;BME280;9591;52.742;13.650;2023-10-13T12:27:39;100133.97;;;37.44;30.01
18918;BME280;9591;52.742;13.650;2023-10-13T12:30:33;100128.75;;;38.57;28.21
18918;BME280;9591;52.742;13.650;2023-10-13T12:33:35;100123.00;;;39.04;28.06
18918;BME280;9591;52.742;13.650;2023-10-13T12:36:28;100119.47;;;39.09;27.58
18918;BME280;9591;52.742;13.650;2023-10-13T12:39:26;100113.19;;;39.30;27.67
18918;BME280;9591;52.742;13.650;2023-10-13T12:42:31;100106.19;;;37.03;30.61
18918;BME280;9591;52.742;13.650;2023-10-13T12:45:38;100105.50;;;37.66;29.06
18918;BME280;9591;52.742;13.650;2023-10-13T12:48:42;100100.47;;;37.87;29.27
18918;BME280;9591;52.742;13.650;2023-10-13T12:52:04;100101.16;;;38.05;28.94
18918;BME280;9591;52.742;13.650;2023-10-13T12:55:01;100098.84;;;36.97;30.25
18918;BME280;9591;52.742;13.650;2023-10-13T12:57:53;100080.25;;;37.98;29.04
18918;BME280;9591;52.742;13.650;2023-10-13T13:00:39;100079.56;;;37.32;30.05
18918;BME280;9591;52.742;13.650;2023-10-13T13:03:35;100068.88;;;37.59;30.15
18918;BME280;9591;52.742;13.650;2023-10-13T13:06:24;100067.88;;;39.03;27.69
18918;BME280;9591;52.742;13.650;2023-10-13T13:09:13;100058.34;;;39.65;26.94
18918;BME280;9591;52.742;13.650;2023-10-13T13:11:59;100055.22;;;38.73;28.09
18918;BME280;9591;52.742;13.650;2023-10-13T13:14:46;100041.81;;;38.98;27.92
18918;BME280;9591;52.742;13.650;2023-10-13T13:17:33;100033.63;;;39.81;26.55
18918;BME280;9591;52.742;13.650;2023-10-13T13:20:20;100030.09;;;38.18;28.82
18918;BME280;9591;52.742;13.650;2023-10-13T13:23:13;100026.47;;;37.89;29.53
18918;BME280;9591;52.742;13.650;2023-10-13T13:26:04;100030.56;;;38.88;28.35
18918;BME280;9591;52.742;13.650;2023-10-13T13:29:01;100028.78;;;37.57;29.67
18918;BME280;9591;52.742;13.650;2023-10-13T13:31:50;100028.34;;;38.00;29.51
18918;BME280;9591;52.742;13.650;2023-10-13T13:34:37;100018.13;;;37.14;30.40
18918;BME280;9591;52.742;13.650;2023-10-13T13:37:24;100006.75;;;38.25;29.18
18918;BME280;9591;52.742;13.650;2023-10-13T13:40:13;100006.31;;;37.77;29.89
18918;BME280;9591;52.742;13.650;2023-10-13T13:43:03;99999.03;;;38.73;27.89
18918;BME280;9591;52.742;13.650;2023-10-13T13:45:50;100006.00;;;38.92;28.03
18918;BME280;9591;52.742;13.650;2023-10-13T13:48:43;99998.78;;;37.37;29.87
18918;BME280;9591;52.742;13.650;2023-10-13T13:51:36;100000.66;;;37.83;29.65
18918;BME280;9591;52.742;13.650;2023-10-13T13:54:23;100002.13;;;39.10;27.99
18918;BME280;9591;52.742;13.650;2023-10-13T13:57:13;99987.56;;;38.64;28.07
18918;BME280;9591;52.742;13.650;2023-10-13T14:00:02;99994.34;;;38.73;28.26
18918;BME280;9591;52.742;13.650;2023-10-13T14:02:54;99990.22;;;38.59;28.79
18918;BME280;9591;52.742;13.650;2023-10-13T14:05:41;99986.44;;;37.28;29.97
18918;BME280;9591;52.742;13.650;2023-10-13T14:08:28;99992.59;;;39.39;27.07
18918;BME280;9591;52.742;13.650;2023-10-13T14:11:15;99981.66;;;38.15;29.20
18918;BME280;9591;52.742;13.650;2023-10-13T14:14:28;99979.66;;;38.11;28.68
18918;BME280;9591;52.742;13.650;2023-10-13T14:17:15;99973.00;;;37.20;30.16
18918;BME280;9591;52.742;13.650;2023-10-13T14:20:03;99977.81;;;39.12;27.47
18918;BME280;9591;52.742;13.650;2023-10-13T14:23:03;99970.59;;;39.11;27.65
18918;BME280;9591;52.742;13.650;2023-10-13T14:25:52;99965.22;;;39.04;27.28
18918;BME280;9591;52.742;13.650;2023-10-13T14:28:41;99963.41;;;38.93;27.46
18918;BME280;9591;52.742;13.650;2023-10-13T14:31:37;99957.66;;;39.55;27.20
18918;BME280;9591;52.742;13.650;2023-10-13T14:34:26;99948.31;;;37.77;28.79
18918;BME280;9591;52.742;13.650;2023-10-13T14:37:13;99935.91;;;39.25;27.35
18918;BME280;9591;52.742;13.650;2023-10-13T14:40:07;99938.22;;;39.11;27.62
18918;BME280;9591;52.742;13.650;2023-10-13T14:42:58;99939.09;;;38.78;27.82
18918;BME280;9591;52.742;13.650;2023-10-13T14:45:45;99929.84;;;38.56;28.11
18918;BME280;9591;52.742;13.650;2023-10-13T14:48:33;99931.59;;;38.28;28.33
18918;BME280;9591;52.742;13.650;2023-10-13T14:51:25;99920.16;;;37.51;28.94
18918;BME280;9591;52.742;13.650;2023-10-13T14:54:14;99919.28;;;38.36;28.10
18918;BME280;9591;52.742;13.650;2023-10-13T14:57:01;99910.41;;;39.23;26.75
18918;BME280;9591;52.742;13.650;2023-10-13T14:59:48;99917.88;;;38.33;27.96
18918;BME280;9591;52.742;13.650;2023-10-13T15:02:35;99910.06;;;38.97;27.39
18918;BME280;9591;52.742;13.650;2023-10-13T15:05:22;99904.66;;;39.08;27.33
18918;BME280;9591;52.742;13.650;2023-10-13T15:08:11;99907.44;;;39.08;27.28
18918;BME280;9591;52.742;13.650;2023-10-13T15:11:07;99911.13;;;39.13;27.19